createdAt,value
2019-05-22T00:06:28.815Z,20.3
2019-05-22T00:36:29.966Z,17.2
2019-05-22T01:06:30.266Z,14.8
2019-05-22T01:36:31.351Z,13.1
2019-05-22T02:06:32.346Z,11.8
2019-05-22T02:36:33.641Z,10.9
2019-05-22T03:06:38.857Z,10.2
2019-05-22T03:36:39.433Z,9.7
2019-05-22T04:06:40.801Z,9.3
2019-05-22T04:36:40.901Z,9.1
2019-05-22T05:06:41.245Z,8.9
2019-05-22T05:36:42.231Z,8.8
2019-05-22T06:06:45.827Z,8.8
2019-05-22T06:36:44.269Z,8.8
2019-05-22T07:07:13.103Z,8.7
2019-05-22T07:37:42.579Z,8.7
2019-05-22T08:07:41.592Z,8.7
2019-05-22T08:37:43.213Z,8.6
2019-05-22T09:07:43.749Z,8.6
2019-05-22T09:37:45.333Z,8.5
2019-05-22T10:08:03.076Z,8.5
2019-05-22T10:37:46.669Z,8.4
2019-05-22T11:07:47.296Z,8.4
2019-05-22T11:37:48.057Z,8.5
2019-05-22T12:07:48.502Z,8.5
2019-05-22T12:37:49.798Z,8.6
2019-05-22T13:07:50.241Z,8.6
2019-05-22T13:37:53.168Z,8.7
2019-05-22T14:07:55.057Z,8.8
2019-05-22T14:37:56.109Z,8.8
2019-05-22T15:07:56.324Z,8.9
2019-05-22T15:37:56.973Z,8.9
2019-05-22T16:07:59.576Z,9
2019-05-22T16:37:59.097Z,9
2019-05-22T17:08:00.157Z,9
2019-05-22T17:38:00.687Z,9
2019-05-22T18:08:01.022Z,9.1
2019-05-22T18:38:09.241Z,9.2
2019-05-22T19:08:30.092Z,9.3
2019-05-22T19:38:37.830Z,9.4
2019-05-22T20:08:39.411Z,9.4
2019-05-22T20:38:35.850Z,9.5
2019-05-22T21:06:40.806Z,79.2
2019-05-22T21:36:48.717Z,62.3
2019-05-22T22:06:47.994Z,49.7
2019-05-22T22:36:48.477Z,38.7
2019-05-22T23:06:50.484Z,30.9
2019-05-22T23:36:55.838Z,24.9
